createdAt,value
2023-04-09T00:00:13.123Z,12.00
2023-04-09T00:02:39.991Z,12.00
2023-04-09T00:05:07.917Z,12.00
2023-04-09T00:07:34.614Z,11.90
2023-04-09T00:10:01.433Z,11.90
2023-04-09T00:12:30.185Z,11.90
2023-04-09T00:14:57.475Z,11.90
2023-04-09T00:17:24.288Z,11.80
2023-04-09T00:19:51.077Z,11.80
2023-04-09T00:22:17.761Z,11.80
2023-04-09T00:24:44.401Z,11.80
2023-04-09T00:27:11.055Z,11.80
2023-04-09T00:29:37.785Z,11.70
2023-04-09T00:32:04.584Z,11.70
2023-04-09T00:34:31.327Z,11.70
2023-04-09T00:36:57.972Z,11.60
2023-04-09T00:39:24.802Z,11.60
2023-04-09T00:41:57.220Z,11.60
2023-04-09T00:44:23.842Z,11.50
2023-04-09T00:46:50.599Z,11.50
2023-04-09T00:49:17.727Z,11.40
2023-04-09T00:51:46.250Z,11.40
2023-04-09T00:54:13.072Z,11.40
2023-04-09T00:56:42.142Z,11.30
2023-04-09T00:59:08.852Z,11.30
2023-04-09T01:01:36.064Z,11.30
2023-04-09T01:04:03.380Z,11.20
2023-04-09T01:06:41.512Z,11.20
2023-04-09T01:09:42.315Z,11.20
2023-04-09T01:12:28.683Z,11.10
2023-04-09T01:15:04.368Z,11.10
2023-04-09T01:18:05.274Z,11.10
2023-04-09T01:20:43.359Z,11.00
2023-04-09T01:23:29.261Z,11.00
2023-04-09T01:26:41.280Z,11.00
2023-04-09T01:29:09.406Z,10.90
2023-04-09T01:31:38.872Z,10.90
2023-04-09T01:34:07.527Z,10.80
2023-04-09T01:36:35.657Z,10.80
2023-04-09T01:39:03.143Z,10.80
2023-04-09T01:41:32.424Z,10.70
2023-04-09T01:44:01.755Z,10.70
2023-04-09T01:46:29.989Z,10.60
2023-04-09T01:48:57.615Z,10.60
2023-04-09T01:51:24.584Z,10.60
2023-04-09T01:53:51.485Z,10.60
2023-04-09T01:56:18.262Z,10.60
2023-04-09T01:58:45.059Z,10.50
2023-04-09T02:01:22.633Z,10.50
2023-04-09T02:03:56.589Z,10.50
2023-04-09T02:06:41.905Z,10.50
2023-04-09T02:09:09.771Z,10.40
2023-04-09T02:11:43.012Z,10.40
2023-04-09T02:14:11.570Z,10.40
2023-04-09T02:16:39.677Z,10.30
2023-04-09T02:19:06.366Z,10.30
2023-04-09T02:21:33.090Z,10.30
2023-04-09T02:23:59.789Z,10.30
2023-04-09T02:26:26.456Z,10.30
2023-04-09T02:28:53.193Z,10.20
2023-04-09T02:31:20.513Z,10.20
2023-04-09T02:33:47.186Z,10.20
2023-04-09T02:36:13.934Z,10.10
2023-04-09T02:38:42.325Z,10.10
2023-04-09T02:41:09.402Z,10.10
2023-04-09T02:43:36.226Z,10.10
2023-04-09T02:46:03.378Z,10.00
2023-04-09T02:48:31.018Z,10.00
2023-04-09T02:50:57.675Z,10.00
2023-04-09T02:53:25.336Z,10.00
2023-04-09T02:55:52.046Z,10.00
2023-04-09T02:58:18.716Z,10.00
2023-04-09T03:00:45.439Z,9.90
2023-04-09T03:03:12.280Z,9.90
2023-04-09T03:05:39.071Z,9.90
2023-04-09T03:08:05.750Z,9.80
2023-04-09T03:10:32.463Z,9.80
2023-04-09T03:12:59.175Z,9.80
2023-04-09T03:15:25.906Z,9.80
2023-04-09T03:17:52.628Z,9.70
2023-04-09T03:20:20.942Z,9.70
2023-04-09T03:22:47.662Z,9.70
2023-04-09T03:25:23.058Z,9.70
2023-04-09T03:27:53.322Z,9.60
2023-04-09T03:30:30.505Z,9.60
2023-04-09T03:32:59.534Z,9.60
2023-04-09T03:35:28.477Z,9.60
2023-04-09T03:37:58.680Z,9.50
2023-04-09T03:40:25.536Z,9.50
2023-04-09T03:42:52.303Z,9.50
2023-04-09T03:45:19.124Z,9.50
2023-04-09T03:47:48.777Z,9.40
2023-04-09T03:50:16.650Z,9.40
2023-04-09T03:52:52.801Z,9.40
2023-04-09T03:55:19.600Z,9.40
2023-04-09T03:57:48.024Z,9.30
2023-04-09T04:00:18.301Z,9.30
2023-04-09T04:02:52.015Z,9.30
2023-04-09T04:05:33.704Z,9.30
2023-04-09T04:08:05.615Z,9.30
2023-04-09T04:10:34.470Z,9.20
2023-04-09T04:13:04.675Z,9.20
2023-04-09T04:15:42.034Z,9.20
2023-04-09T04:18:10.877Z,9.20
2023-04-09T04:20:42.769Z,9.10
2023-04-09T04:23:13.068Z,9.10
2023-04-09T04:25:48.927Z,9.10
2023-04-09T04:28:23.454Z,9.10
2023-04-09T04:30:50.130Z,9.00
2023-04-09T04:33:16.853Z,9.00
2023-04-09T04:35:49.002Z,9.00
2023-04-09T04:38:35.077Z,9.00
2023-04-09T04:41:05.876Z,9.00
2023-04-09T04:43:36.495Z,9.00
2023-04-09T04:46:03.267Z,9.00
2023-04-09T04:48:31.945Z,9.00
2023-04-09T04:51:00.503Z,8.90
2023-04-09T04:53:33.583Z,8.90
2023-04-09T04:56:12.275Z,8.90
2023-04-09T04:58:43.715Z,8.90
2023-04-09T05:01:10.433Z,8.90
2023-04-09T05:03:37.374Z,8.90
2023-04-09T05:06:24.436Z,8.80
2023-04-09T05:08:51.470Z,8.80
2023-04-09T05:11:18.417Z,8.80
2023-04-09T05:13:47.462Z,8.80
2023-04-09T05:16:18.502Z,8.80
2023-04-09T05:18:49.843Z,8.80
2023-04-09T05:21:16.962Z,8.80
2023-04-09T05:23:45.691Z,8.80
2023-04-09T05:26:12.347Z,8.80
2023-04-09T05:28:48.635Z,8.80
2023-04-09T05:31:18.864Z,8.80
2023-04-09T05:33:53.160Z,8.80
2023-04-09T05:36:25.892Z,8.80
2023-04-09T05:38:52.761Z,8.80
2023-04-09T05:41:19.782Z,8.80
2023-04-09T05:44:02.154Z,8.80
2023-04-09T05:46:29.849Z,8.80
2023-04-09T05:48:56.847Z,8.80
2023-04-09T05:51:25.728Z,8.80
2023-04-09T05:53:52.897Z,8.80
2023-04-09T05:56:22.590Z,8.90
2023-04-09T05:58:56.014Z,8.90
2023-04-09T06:01:22.884Z,8.90
2023-04-09T06:03:49.965Z,8.90
2023-04-09T06:06:17.042Z,8.90
2023-04-09T06:08:44.927Z,9.00
2023-04-09T06:11:12.180Z,9.00
2023-04-09T06:13:38.875Z,9.00
2023-04-09T06:16:07.219Z,9.10
2023-04-09T06:18:34.491Z,9.10
2023-04-09T06:21:08.643Z,9.10
2023-04-09T06:23:36.296Z,9.20
2023-04-09T06:26:03.186Z,9.20
2023-04-09T06:28:31.411Z,9.30
2023-04-09T06:30:58.825Z,9.30
2023-04-09T06:33:25.897Z,9.30
2023-04-09T06:35:52.653Z,9.40
2023-04-09T06:38:19.419Z,9.40
2023-04-09T06:40:46.376Z,9.50
2023-04-09T06:43:13.270Z,9.60
2023-04-09T06:45:50.988Z,9.70
2023-04-09T06:48:18.755Z,9.80
2023-04-09T06:50:45.789Z,10.00
2023-04-09T06:53:12.468Z,10.20
2023-04-09T06:55:39.185Z,10.40
2023-04-09T06:58:05.814Z,10.60
2023-04-09T07:00:32.513Z,10.80
2023-04-09T07:02:59.493Z,11.00
2023-04-09T07:05:26.339Z,11.30
2023-04-09T07:07:53.053Z,11.60
2023-04-09T07:10:19.748Z,11.80
2023-04-09T07:12:46.430Z,12.10
2023-04-09T07:15:13.163Z,12.50
2023-04-09T07:17:39.955Z,12.80
2023-04-09T07:20:07.025Z,13.10
2023-04-09T07:22:33.666Z,13.50
2023-04-09T07:25:00.522Z,13.80
2023-04-09T07:27:28.443Z,14.20
2023-04-09T07:29:59.305Z,14.60
2023-04-09T07:32:28.024Z,14.90
2023-04-09T07:34:55.750Z,15.30
2023-04-09T07:37:22.680Z,15.70
2023-04-09T07:39:51.375Z,16.00
2023-04-09T07:42:18.211Z,16.30
2023-04-09T07:44:44.929Z,16.60
2023-04-09T07:47:12.807Z,17.00
2023-04-09T07:49:39.821Z,17.30
2023-04-09T07:52:06.972Z,17.60
2023-04-09T07:54:34.623Z,17.90
2023-04-09T07:57:01.696Z,18.30
2023-04-09T07:59:29.468Z,18.60
2023-04-09T08:01:56.358Z,18.90
2023-04-09T08:04:23.319Z,19.20
2023-04-09T08:06:51.125Z,19.50
2023-04-09T08:09:18.385Z,19.80
2023-04-09T08:11:45.794Z,20.10
2023-04-09T08:14:13.014Z,20.40
2023-04-09T08:16:44.933Z,20.80
2023-04-09T08:19:12.175Z,21.10
2023-04-09T08:21:40.412Z,21.40
2023-04-09T08:24:07.509Z,21.70
2023-04-09T08:26:34.167Z,22.00
2023-04-09T08:29:01.415Z,22.30
2023-04-09T08:31:28.408Z,22.60
2023-04-09T08:33:55.071Z,22.90
2023-04-09T08:36:22.155Z,23.20
2023-04-09T08:38:49.156Z,23.50
2023-04-09T08:41:28.478Z,23.80
2023-04-09T08:43:58.883Z,24.00
2023-04-09T08:46:27.415Z,24.30
2023-04-09T08:48:54.738Z,24.50
2023-04-09T08:51:24.353Z,24.70
2023-04-09T08:54:00.792Z,24.90
2023-04-09T08:56:29.146Z,25.20
2023-04-09T08:58:56.533Z,25.30
2023-04-09T09:01:30.503Z,25.40
2023-04-09T09:03:59.405Z,25.50
2023-04-09T09:06:32.739Z,25.60
2023-04-09T09:09:07.529Z,25.60
2023-04-09T09:11:36.208Z,25.70
2023-04-09T09:14:07.932Z,25.80
2023-04-09T09:16:36.263Z,25.80
2023-04-09T09:19:03.396Z,25.80
2023-04-09T09:21:30.312Z,25.90
2023-04-09T09:23:57.748Z,25.90
2023-04-09T09:26:29.878Z,25.90
2023-04-09T09:29:01.100Z,25.90
2023-04-09T09:31:28.160Z,26.00
2023-04-09T09:33:55.030Z,26.00
2023-04-09T09:36:33.015Z,26.20
2023-04-09T09:39:03.695Z,26.20
2023-04-09T09:41:30.965Z,26.30
2023-04-09T09:43:57.658Z,26.50
2023-04-09T09:46:26.174Z,26.50
2023-04-09T09:48:53.371Z,26.60
2023-04-09T09:51:26.391Z,26.70
2023-04-09T09:53:57.080Z,26.80
2023-04-09T09:56:32.326Z,26.90
2023-04-09T09:59:22.583Z,27.00
2023-04-09T10:01:56.008Z,27.20
2023-04-09T10:04:25.388Z,27.30
2023-04-09T10:06:53.636Z,27.30
2023-04-09T10:09:22.017Z,27.40
2023-04-09T10:11:49.510Z,27.50
2023-04-09T10:14:18.627Z,27.60
2023-04-09T10:16:46.702Z,27.70
2023-04-09T10:19:14.966Z,27.90
2023-04-09T10:21:54.670Z,28.00
2023-04-09T10:24:22.249Z,28.20
2023-04-09T10:26:48.945Z,28.30
2023-04-09T10:29:16.430Z,28.40
2023-04-09T10:32:03.131Z,28.40
2023-04-09T10:34:29.914Z,28.50
2023-04-09T10:36:57.656Z,28.50
2023-04-09T10:39:31.988Z,28.40
2023-04-09T10:42:07.340Z,28.10
2023-04-09T10:44:35.944Z,27.80
2023-04-09T10:47:04.012Z,27.40
2023-04-09T10:49:38.017Z,27.00
2023-04-09T10:52:13.611Z,26.70
2023-04-09T10:54:45.434Z,26.40
2023-04-09T10:57:17.700Z,26.00
2023-04-09T10:59:49.714Z,25.70
2023-04-09T11:02:40.461Z,25.40
2023-04-09T11:05:22.987Z,25.10
2023-04-09T11:08:09.534Z,24.80
2023-04-09T11:10:38.094Z,24.60
2023-04-09T11:13:05.357Z,24.30
2023-04-09T11:15:34.972Z,24.20
2023-04-09T11:18:02.223Z,23.90
2023-04-09T11:20:30.982Z,23.70
2023-04-09T11:22:59.595Z,23.50
2023-04-09T11:25:28.652Z,23.30
2023-04-09T11:27:55.680Z,23.30
2023-04-09T11:30:22.401Z,23.10
2023-04-09T11:32:50.462Z,22.90
2023-04-09T11:35:22.471Z,23.00
2023-04-09T11:37:50.095Z,22.80
2023-04-09T11:40:21.404Z,22.70
2023-04-09T11:42:52.718Z,22.70
2023-04-09T11:45:23.134Z,22.50
2023-04-09T11:47:50.211Z,22.40
2023-04-09T11:50:17.311Z,22.30
2023-04-09T11:52:46.074Z,22.20
2023-04-09T11:55:22.455Z,22.20
2023-04-09T11:57:51.057Z,22.00
2023-04-09T12:00:18.172Z,21.90
2023-04-09T12:02:46.909Z,21.80
2023-04-09T12:05:23.081Z,21.80
2023-04-09T12:07:56.368Z,21.70
2023-04-09T12:10:30.625Z,21.70
2023-04-09T12:13:08.301Z,21.70
2023-04-09T12:15:37.137Z,21.60
2023-04-09T12:18:08.135Z,21.50
2023-04-09T12:20:36.748Z,21.40
2023-04-09T12:23:04.922Z,21.30
2023-04-09T12:25:42.238Z,21.30
2023-04-09T12:28:11.765Z,21.20
2023-04-09T12:30:38.472Z,21.20
2023-04-09T12:33:07.088Z,21.10
2023-04-09T12:35:35.532Z,21.00
2023-04-09T12:38:02.186Z,21.00
2023-04-09T12:40:28.980Z,20.90
2023-04-09T12:42:55.766Z,20.80
2023-04-09T12:45:23.120Z,20.70
2023-04-09T12:47:50.008Z,20.70
2023-04-09T12:50:17.093Z,20.60
2023-04-09T12:52:44.420Z,20.50
2023-04-09T12:55:12.135Z,20.40
2023-04-09T12:57:39.848Z,20.30
2023-04-09T13:00:07.588Z,20.20
2023-04-09T13:02:35.055Z,20.20
2023-04-09T13:05:01.870Z,20.10
2023-04-09T13:07:29.416Z,20.00
2023-04-09T13:09:57.221Z,20.00
2023-04-09T13:12:25.009Z,19.90
2023-04-09T13:14:54.152Z,19.90
2023-04-09T13:17:21.085Z,19.90
2023-04-09T13:19:47.940Z,19.90
2023-04-09T13:22:14.761Z,19.80
2023-04-09T13:24:43.045Z,19.80
2023-04-09T13:27:10.972Z,19.80
2023-04-09T13:29:37.963Z,19.90
2023-04-09T13:32:07.325Z,19.80
2023-04-09T13:34:35.218Z,19.80
2023-04-09T13:37:05.225Z,19.80
2023-04-09T13:39:32.087Z,19.80
2023-04-09T13:41:59.604Z,19.80
2023-04-09T13:44:26.712Z,19.70
2023-04-09T13:46:53.451Z,19.70
2023-04-09T13:49:20.970Z,19.60
2023-04-09T13:51:49.353Z,19.50
2023-04-09T13:54:16.522Z,19.50
2023-04-09T13:56:44.875Z,19.50
2023-04-09T13:59:11.748Z,19.40
2023-04-09T14:01:38.517Z,19.40
2023-04-09T14:04:05.302Z,19.40
2023-04-09T14:06:32.031Z,19.40
2023-04-09T14:08:58.730Z,19.40
2023-04-09T14:11:25.440Z,19.50
2023-04-09T14:13:52.376Z,19.50
2023-04-09T14:16:19.428Z,19.60
2023-04-09T14:18:46.235Z,19.60
2023-04-09T14:21:13.171Z,19.60
2023-04-09T14:23:40.243Z,19.60
2023-04-09T14:26:07.111Z,19.60
2023-04-09T14:28:33.834Z,19.60
2023-04-09T14:31:01.022Z,19.60
2023-04-09T14:33:27.932Z,19.50
2023-04-09T14:35:54.736Z,19.50
2023-04-09T14:38:23.814Z,19.50
2023-04-09T14:40:51.361Z,19.50
2023-04-09T14:43:18.112Z,19.50
2023-04-09T14:45:44.890Z,19.50
2023-04-09T14:48:11.557Z,19.50
2023-04-09T14:50:38.245Z,19.50
2023-04-09T14:53:04.996Z,19.50
2023-04-09T14:55:31.661Z,19.50
2023-04-09T14:57:59.630Z,19.50
2023-04-09T15:00:26.640Z,19.50
2023-04-09T15:02:53.476Z,19.50
2023-04-09T15:05:20.626Z,19.50
2023-04-09T15:07:47.242Z,19.50
2023-04-09T15:10:14.076Z,19.50
2023-04-09T15:12:40.870Z,19.50
2023-04-09T15:15:09.127Z,19.50
2023-04-09T15:17:36.386Z,19.50
2023-04-09T15:20:04.079Z,19.40
2023-04-09T15:22:30.836Z,19.40
2023-04-09T15:24:57.602Z,19.40
2023-04-09T15:27:24.505Z,19.30
2023-04-09T15:29:51.849Z,19.40
2023-04-09T15:32:19.197Z,19.30
2023-04-09T15:34:46.014Z,19.30
2023-04-09T15:37:12.759Z,19.20
2023-04-09T15:39:39.440Z,19.30
2023-04-09T15:42:07.312Z,19.20
2023-04-09T15:44:36.289Z,19.20
2023-04-09T15:47:03.042Z,19.10
2023-04-09T15:49:29.834Z,19.10
2023-04-09T15:51:56.491Z,19.00
2023-04-09T15:54:23.164Z,19.00
2023-04-09T15:56:49.823Z,18.90
2023-04-09T15:59:16.750Z,18.90
2023-04-09T16:01:44.154Z,18.90
2023-04-09T16:04:10.950Z,18.80
2023-04-09T16:06:39.248Z,18.80
2023-04-09T16:09:05.988Z,18.70
2023-04-09T16:11:35.686Z,18.70
2023-04-09T16:14:02.376Z,18.70
2023-04-09T16:16:29.118Z,18.60
2023-04-09T16:18:56.091Z,18.50
2023-04-09T16:21:22.881Z,18.40
2023-04-09T16:23:49.580Z,18.30
2023-04-09T16:26:16.304Z,18.30
2023-04-09T16:28:42.988Z,18.20
2023-04-09T16:31:09.628Z,18.10
2023-04-09T16:33:36.296Z,18.10
2023-04-09T16:36:03.101Z,18.00
2023-04-09T16:38:31.056Z,17.90
2023-04-09T16:40:57.777Z,17.80
2023-04-09T16:43:25.206Z,17.80
2023-04-09T16:45:52.190Z,17.70
2023-04-09T16:48:19.248Z,17.70
2023-04-09T16:50:45.941Z,17.70
2023-04-09T16:53:12.636Z,17.60
2023-04-09T16:55:39.344Z,17.60
2023-04-09T16:58:06.154Z,17.60
2023-04-09T17:00:32.822Z,17.50
2023-04-09T17:02:59.762Z,17.50
2023-04-09T17:05:26.565Z,17.40
2023-04-09T17:07:53.573Z,17.40
2023-04-09T17:10:20.768Z,17.30
2023-04-09T17:12:48.092Z,17.30
2023-04-09T17:15:15.200Z,17.20
2023-04-09T17:17:43.540Z,17.10
2023-04-09T17:20:11.295Z,17.10
2023-04-09T17:22:39.166Z,17.00
2023-04-09T17:25:06.252Z,16.90
2023-04-09T17:27:33.122Z,16.90
2023-04-09T17:29:59.805Z,16.80
2023-04-09T17:32:26.462Z,16.80
2023-04-09T17:34:53.166Z,16.80
2023-04-09T17:37:19.939Z,16.70
2023-04-09T17:39:46.574Z,16.70
2023-04-09T17:42:13.315Z,16.60
2023-04-09T17:44:40.001Z,16.60
2023-04-09T17:47:07.367Z,16.50
2023-04-09T17:49:34.458Z,16.50
2023-04-09T17:52:01.488Z,16.40
2023-04-09T17:54:33.780Z,16.40
2023-04-09T17:57:01.632Z,16.30
2023-04-09T17:59:28.882Z,16.30
2023-04-09T18:01:56.623Z,16.20
2023-04-09T18:04:24.329Z,16.20
2023-04-09T18:06:51.506Z,16.10
2023-04-09T18:09:18.369Z,16.10
2023-04-09T18:11:45.754Z,16.00
2023-04-09T18:14:12.577Z,15.90
2023-04-09T18:16:39.589Z,15.90
2023-04-09T18:19:07.108Z,15.90
2023-04-09T18:21:36.368Z,15.80
2023-04-09T18:24:03.685Z,15.70
2023-04-09T18:26:31.229Z,15.70
2023-04-09T18:29:00.753Z,15.70
2023-04-09T18:31:27.786Z,15.60
2023-04-09T18:33:54.501Z,15.60
2023-04-09T18:36:21.274Z,15.50
2023-04-09T18:38:48.154Z,15.50
2023-04-09T18:41:25.365Z,15.40
2023-04-09T18:43:52.462Z,15.30
2023-04-09T18:46:19.249Z,15.30
2023-04-09T18:48:47.006Z,15.30
2023-04-09T18:51:14.343Z,15.20
2023-04-09T18:53:41.741Z,15.20
2023-04-09T18:56:08.397Z,15.10
2023-04-09T18:58:35.998Z,15.10
2023-04-09T19:01:12.295Z,15.00
2023-04-09T19:03:40.169Z,15.00
2023-04-09T19:06:15.085Z,14.90
2023-04-09T19:08:42.112Z,14.90
2023-04-09T19:11:08.825Z,14.90
2023-04-09T19:13:36.585Z,14.80
2023-04-09T19:16:04.015Z,14.80
2023-04-09T19:18:31.424Z,14.70
2023-04-09T19:20:58.449Z,14.70
2023-04-09T19:23:25.660Z,14.70
2023-04-09T19:25:55.050Z,14.60
2023-04-09T19:28:22.626Z,14.50
2023-04-09T19:30:52.220Z,14.50
2023-04-09T19:33:21.253Z,14.50
2023-04-09T19:35:49.410Z,14.40
2023-04-09T19:38:16.615Z,14.40
2023-04-09T19:40:43.816Z,14.30
2023-04-09T19:43:11.085Z,14.30
2023-04-09T19:45:38.615Z,14.20
2023-04-09T19:48:06.466Z,14.20
2023-04-09T19:50:46.416Z,14.20
2023-04-09T19:53:13.078Z,14.10
2023-04-09T19:55:39.754Z,14.10
2023-04-09T19:58:07.146Z,14.00
2023-04-09T20:00:34.533Z,14.00
2023-04-09T20:03:02.604Z,13.90
2023-04-09T20:05:29.525Z,13.90
2023-04-09T20:07:56.196Z,13.90
2023-04-09T20:10:22.952Z,13.90
2023-04-09T20:12:51.079Z,13.80
2023-04-09T20:15:20.114Z,13.80
2023-04-09T20:17:48.139Z,13.80
2023-04-09T20:20:17.813Z,13.70
2023-04-09T20:22:47.346Z,13.70
2023-04-09T20:25:14.515Z,13.70
2023-04-09T20:27:41.269Z,13.60
2023-04-09T20:30:08.645Z,13.60
2023-04-09T20:32:36.993Z,13.60
2023-04-09T20:35:04.645Z,13.60
2023-04-09T20:37:31.434Z,13.60
2023-04-09T20:39:59.482Z,13.50
2023-04-09T20:42:26.413Z,13.50
2023-04-09T20:44:53.201Z,13.50
2023-04-09T20:47:22.792Z,13.50
2023-04-09T20:49:50.929Z,13.50
2023-04-09T20:52:17.797Z,13.40
2023-04-09T20:54:45.297Z,13.40
2023-04-09T20:57:13.806Z,13.40
2023-04-09T20:59:40.684Z,13.40
2023-04-09T21:02:08.393Z,13.40
2023-04-09T21:04:35.271Z,13.30
2023-04-09T21:07:01.912Z,13.30
2023-04-09T21:09:29.098Z,13.30
2023-04-09T21:11:55.919Z,13.30
2023-04-09T21:14:22.772Z,13.30
2023-04-09T21:16:49.466Z,13.20
2023-04-09T21:19:16.578Z,13.20
2023-04-09T21:21:43.201Z,13.20
2023-04-09T21:24:09.947Z,13.10
2023-04-09T21:26:49.890Z,13.10
2023-04-09T21:29:21.936Z,13.00
2023-04-09T21:31:49.459Z,13.00
2023-04-09T21:34:16.363Z,12.90
2023-04-09T21:36:44.830Z,12.90
2023-04-09T21:39:12.206Z,12.90
2023-04-09T21:41:39.362Z,12.80
2023-04-09T21:44:08.188Z,12.80
2023-04-09T21:46:36.902Z,12.80
2023-04-09T21:49:04.244Z,12.70
2023-04-09T21:51:31.554Z,12.70
2023-04-09T21:54:05.958Z,12.70
2023-04-09T21:56:33.341Z,12.60
2023-04-09T21:59:00.782Z,12.60
2023-04-09T22:01:31.310Z,12.50
2023-04-09T22:03:59.479Z,12.60
2023-04-09T22:06:27.233Z,12.50
2023-04-09T22:08:56.828Z,12.50
2023-04-09T22:11:28.416Z,12.50
2023-04-09T22:13:56.759Z,12.50
2023-04-09T22:16:24.024Z,12.50
2023-04-09T22:18:51.734Z,12.40
2023-04-09T22:21:18.705Z,12.40
2023-04-09T22:23:45.644Z,12.40
2023-04-09T22:26:12.320Z,12.40
2023-04-09T22:28:39.202Z,12.40
2023-04-09T22:31:06.324Z,12.30
2023-04-09T22:33:33.105Z,12.30
2023-04-09T22:35:59.982Z,12.30
2023-04-09T22:38:26.876Z,12.30
2023-04-09T22:40:53.949Z,12.30
2023-04-09T22:43:20.618Z,12.30
2023-04-09T22:45:52.191Z,12.20
2023-04-09T22:48:20.480Z,12.20
2023-04-09T22:50:48.220Z,12.20
2023-04-09T22:53:18.600Z,12.20
2023-04-09T22:55:47.422Z,12.20
2023-04-09T22:58:14.394Z,12.20
2023-04-09T23:00:41.182Z,12.20
2023-04-09T23:03:08.387Z,12.10
2023-04-09T23:05:35.567Z,12.10
2023-04-09T23:08:02.321Z,12.10
2023-04-09T23:10:29.108Z,12.10
2023-04-09T23:12:56.996Z,12.10
2023-04-09T23:15:23.677Z,12.10
2023-04-09T23:17:51.874Z,12.10
2023-04-09T23:20:18.727Z,12.10
2023-04-09T23:22:48.971Z,12.10
2023-04-09T23:25:16.552Z,12.10
2023-04-09T23:27:43.745Z,12.10
2023-04-09T23:30:11.136Z,12.00
2023-04-09T23:32:37.806Z,12.00
2023-04-09T23:35:05.418Z,12.00
2023-04-09T23:37:32.108Z,12.00
2023-04-09T23:39:58.804Z,12.00
2023-04-09T23:42:29.736Z,12.00
2023-04-09T23:44:56.430Z,12.00
2023-04-09T23:47:23.198Z,12.00
2023-04-09T23:49:49.985Z,11.90
2023-04-09T23:52:16.659Z,11.90
2023-04-09T23:54:50.078Z,11.90
2023-04-09T23:57:17.707Z,11.90
2023-04-09T23:59:44.330Z,11.90
